createdAt,value
2018-01-10T00:01:08.943Z,14.13
2018-01-10T00:03:43.514Z,16.27
2018-01-10T00:06:18.829Z,10.25
2018-01-10T00:08:53.337Z,13.65
2018-01-10T00:11:27.744Z,12.95
2018-01-10T00:14:02.354Z,20.25
2018-01-10T00:16:36.835Z,12.18
2018-01-10T00:19:11.313Z,15.52
2018-01-10T00:21:46.591Z,14.95
2018-01-10T00:24:21.178Z,13.38
2018-01-10T00:26:55.738Z,13.32
2018-01-10T00:29:30.088Z,14.65
2018-01-10T00:32:04.663Z,14.32
2018-01-10T00:34:39.201Z,15.82
2018-01-10T00:37:13.638Z,13.65
2018-01-10T00:39:48.266Z,11.50
2018-01-10T00:42:22.834Z,17.33
2018-01-10T00:44:57.362Z,13.50
2018-01-10T00:47:32.644Z,18.90
2018-01-10T00:50:07.879Z,14.80
2018-01-10T00:52:42.395Z,17.83
2018-01-10T00:55:16.939Z,16.05
2018-01-10T00:57:51.597Z,15.30
2018-01-10T01:00:26.883Z,15.10
2018-01-10T01:03:01.419Z,13.85
2018-01-10T01:05:35.841Z,18.67
2018-01-10T01:08:10.317Z,17.83
2018-01-10T01:10:44.856Z,14.93
2018-01-10T01:13:19.284Z,16.35
2018-01-10T01:15:53.700Z,11.95
2018-01-10T01:18:28.144Z,19.45
2018-01-10T01:21:02.566Z,14.43
2018-01-10T01:23:37.145Z,10.93
2018-01-10T01:26:12.301Z,15.90
2018-01-10T01:28:46.743Z,17.23
2018-01-10T01:31:21.214Z,19.77
2018-01-10T01:33:56.512Z,18.27
2018-01-10T01:36:30.902Z,9.95
2018-01-10T01:39:05.438Z,14.43
2018-01-10T01:41:39.861Z,17.05
2018-01-10T01:44:14.341Z,16.35
2018-01-10T01:46:48.844Z,14.63
2018-01-10T01:49:23.258Z,13.90
2018-01-10T01:51:58.557Z,11.02
2018-01-10T01:54:32.989Z,18.75
2018-01-10T01:57:07.610Z,17.80
2018-01-10T01:59:43.058Z,16.60
2018-01-10T02:02:17.579Z,14.07
2018-01-10T02:04:52.182Z,23.50
2018-01-10T02:07:26.688Z,14.50
2018-01-10T02:10:01.236Z,15.25
2018-01-10T02:12:35.611Z,13.73
2018-01-10T02:15:10.181Z,14.38
2018-01-10T02:17:44.743Z,20.90
2018-01-10T02:20:20.076Z,14.93
2018-01-10T02:22:54.458Z,15.77
2018-01-10T02:25:28.920Z,14.65
2018-01-10T02:28:04.260Z,17.23
2018-01-10T02:30:38.766Z,13.43
2018-01-10T02:33:13.348Z,15.80
2018-01-10T02:35:47.918Z,18.87
2018-01-10T02:38:22.301Z,13.10
2018-01-10T02:40:56.841Z,18.92
2018-01-10T02:43:31.318Z,12.23
2018-01-10T02:46:06.792Z,13.57
2018-01-10T02:48:41.264Z,15.13
2018-01-10T02:51:15.837Z,19.52
2018-01-10T02:53:50.367Z,13.88
2018-01-10T02:56:24.925Z,14.55
2018-01-10T02:58:59.272Z,18.12
2018-01-10T03:01:52.282Z,18.55
2018-01-10T03:04:26.960Z,13.80
2018-01-10T03:07:01.505Z,15.68
2018-01-10T03:09:36.101Z,14.18
2018-01-10T03:12:10.660Z,15.98
2018-01-10T03:14:45.194Z,19.73
2018-01-10T03:17:19.719Z,21.00
2018-01-10T03:19:54.305Z,16.65
2018-01-10T03:22:29.568Z,15.93
2018-01-10T03:25:04.073Z,17.58
2018-01-10T03:27:38.639Z,17.65
2018-01-10T03:30:13.754Z,23.48
2018-01-10T03:32:48.229Z,18.20
2018-01-10T03:35:22.712Z,18.90
2018-01-10T03:37:57.116Z,14.13
2018-01-10T03:40:31.686Z,16.50
2018-01-10T03:43:06.028Z,15.65
2018-01-10T03:45:40.556Z,16.58
2018-01-10T03:48:15.080Z,18.60
2018-01-10T03:50:50.443Z,24.17
2018-01-10T03:53:24.967Z,15.43
2018-01-10T03:55:59.478Z,17.25
2018-01-10T03:58:34.951Z,20.33
2018-01-10T04:01:09.416Z,22.77
2018-01-10T04:03:43.876Z,14.45
2018-01-10T04:06:18.359Z,16.15
2018-01-10T04:08:52.929Z,16.77
2018-01-10T04:11:27.434Z,17.35
2018-01-10T04:14:02.005Z,20.88
2018-01-10T04:16:36.561Z,16.10
2018-01-10T04:19:11.164Z,19.08
2018-01-10T04:21:45.635Z,16.92
2018-01-10T04:24:20.153Z,16.02
2018-01-10T04:26:54.535Z,18.10
2018-01-10T04:29:29.013Z,15.43
2018-01-10T04:32:03.611Z,16.77
2018-01-10T04:34:38.042Z,14.40
2018-01-10T04:37:12.637Z,24.75
2018-01-10T04:39:47.121Z,21.25
2018-01-10T04:42:21.747Z,16.65
2018-01-10T04:44:56.145Z,18.92
2018-01-10T04:47:30.768Z,21.37
2018-01-10T04:50:06.082Z,15.73
2018-01-10T04:52:40.474Z,21.55
2018-01-10T04:55:15.007Z,18.58
2018-01-10T04:57:49.417Z,18.20
2018-01-10T05:00:23.828Z,17.12
2018-01-10T05:02:58.340Z,26.98
2018-01-10T05:05:32.832Z,18.67
2018-01-10T05:08:07.174Z,25.37
2018-01-10T05:10:41.625Z,18.85
2018-01-10T05:13:16.094Z,17.23
2018-01-10T05:15:50.659Z,20.45
2018-01-10T05:18:26.006Z,19.30
2018-01-10T05:21:00.449Z,17.92
2018-01-10T05:23:34.845Z,19.87
2018-01-10T05:26:09.265Z,17.67
2018-01-10T05:28:43.761Z,20.10
2018-01-10T05:31:18.234Z,22.73
2018-01-10T05:33:52.607Z,20.62
2018-01-10T05:36:27.094Z,17.05
2018-01-10T05:39:01.597Z,22.60
2018-01-10T05:41:36.176Z,19.77
2018-01-10T05:44:10.669Z,15.85
2018-01-10T05:46:45.207Z,19.27
2018-01-10T05:49:19.719Z,17.15
2018-01-10T05:51:54.117Z,17.52
2018-01-10T05:54:28.515Z,19.42
2018-01-10T05:57:03.809Z,22.42
2018-01-10T05:59:39.181Z,21.12
2018-01-10T06:02:13.734Z,23.12
2018-01-10T06:04:48.144Z,22.77
2018-01-10T06:07:22.702Z,20.73
2018-01-10T06:09:57.165Z,22.02
2018-01-10T06:12:31.665Z,24.65
2018-01-10T06:15:06.226Z,27.23
2018-01-10T06:17:40.619Z,20.95
2018-01-10T06:20:15.126Z,27.08
2018-01-10T06:22:49.672Z,24.00
2018-01-10T06:25:24.179Z,25.70
2018-01-10T06:27:58.863Z,25.62
2018-01-10T06:30:34.004Z,29.10
2018-01-10T06:33:08.444Z,23.48
2018-01-10T06:35:42.829Z,24.95
2018-01-10T06:38:17.323Z,23.45
2018-01-10T06:40:51.822Z,24.98
2018-01-10T06:43:26.418Z,26.30
2018-01-10T06:46:00.889Z,29.17
2018-01-10T06:48:35.388Z,27.15
2018-01-10T06:51:10.690Z,24.73
2018-01-10T06:53:45.060Z,25.12
2018-01-10T06:56:19.642Z,27.35
2018-01-10T06:58:54.152Z,28.38
2018-01-10T07:01:28.608Z,23.45
2018-01-10T07:04:03.107Z,29.00
2018-01-10T07:06:38.464Z,22.10
2018-01-10T07:09:12.856Z,22.95
2018-01-10T07:11:47.378Z,19.75
2018-01-10T07:14:21.766Z,24.90
2018-01-10T07:16:56.919Z,30.83
2018-01-10T07:19:31.471Z,25.90
2018-01-10T07:22:05.968Z,26.65
2018-01-10T07:24:40.491Z,20.95
2018-01-10T07:27:15.018Z,22.90
2018-01-10T07:29:49.571Z,19.98
2018-01-10T07:32:24.042Z,24.60
2018-01-10T07:34:58.494Z,20.65
2018-01-10T07:37:32.963Z,19.17
2018-01-10T07:40:07.575Z,23.70
2018-01-10T07:42:42.082Z,26.00
2018-01-10T07:45:16.592Z,27.00
2018-01-10T07:47:51.249Z,24.30
2018-01-10T07:50:25.783Z,23.50
2018-01-10T07:53:00.300Z,21.12
2018-01-10T07:55:34.692Z,25.48
2018-01-10T07:58:09.175Z,29.27
2018-01-10T08:00:43.699Z,24.80
2018-01-10T08:03:18.244Z,24.37
2018-01-10T08:05:52.731Z,28.35
2018-01-10T08:08:27.993Z,26.40
2018-01-10T08:11:02.387Z,28.62
2018-01-10T08:13:36.959Z,32.38
2018-01-10T08:16:11.371Z,26.65
2018-01-10T08:18:45.878Z,27.50
2018-01-10T08:21:20.399Z,28.85
2018-01-10T08:23:54.836Z,23.73
2018-01-10T08:26:29.301Z,28.20
2018-01-10T08:29:04.600Z,23.12
2018-01-10T08:31:39.082Z,21.27
2018-01-10T08:34:13.674Z,24.65
2018-01-10T08:36:48.308Z,26.62
2018-01-10T08:39:22.763Z,21.85
2018-01-10T08:41:57.319Z,24.37
2018-01-10T08:44:31.758Z,26.87
2018-01-10T08:47:06.205Z,30.00
2018-01-10T08:49:40.586Z,26.60
2018-01-10T08:52:15.082Z,26.37
2018-01-10T08:54:49.437Z,25.30
2018-01-10T08:57:23.922Z,21.85
2018-01-10T08:59:58.429Z,23.65
2018-01-10T09:02:32.894Z,22.67
2018-01-10T09:05:07.500Z,30.10
2018-01-10T09:07:41.991Z,27.00
2018-01-10T09:10:17.216Z,30.90
2018-01-10T09:12:51.568Z,22.75
2018-01-10T09:15:26.868Z,24.23
2018-01-10T09:18:02.130Z,27.00
2018-01-10T09:20:36.621Z,27.25
2018-01-10T09:23:11.420Z,28.67
2018-01-10T09:25:45.971Z,23.08
2018-01-10T09:28:20.403Z,24.10
2018-01-10T09:30:54.857Z,24.35
2018-01-10T09:33:29.367Z,28.75
2018-01-10T09:36:03.909Z,29.02
2018-01-10T09:38:38.393Z,29.50
2018-01-10T09:41:12.855Z,22.20
2018-01-10T09:43:47.412Z,23.20
2018-01-10T09:46:21.907Z,29.58
2018-01-10T09:48:56.419Z,25.90
2018-01-10T09:51:30.946Z,24.87
2018-01-10T09:54:05.431Z,24.65
2018-01-10T09:56:40.391Z,25.45
2018-01-10T09:59:14.776Z,25.83
2018-01-10T10:01:49.288Z,22.67
2018-01-10T10:04:23.824Z,28.50
2018-01-10T10:06:58.394Z,25.45
2018-01-10T10:09:33.675Z,24.63
2018-01-10T10:12:08.213Z,26.83
2018-01-10T10:14:43.356Z,26.27
2018-01-10T10:17:17.881Z,26.83
2018-01-10T10:19:53.342Z,28.02
2018-01-10T10:22:27.825Z,25.08
2018-01-10T10:25:02.332Z,33.10
2018-01-10T10:27:36.798Z,35.50
2018-01-10T10:30:11.291Z,26.42
2018-01-10T10:32:45.741Z,25.62
2018-01-10T10:35:20.446Z,21.52
2018-01-10T10:37:55.776Z,23.45
2018-01-10T10:40:30.325Z,24.65
2018-01-10T10:43:04.826Z,29.58
2018-01-10T10:45:39.370Z,26.35
2018-01-10T10:48:13.987Z,31.60
2018-01-10T10:50:48.548Z,29.70
2018-01-10T10:53:22.993Z,26.65
2018-01-10T10:55:57.442Z,46.50
2018-01-10T10:58:32.032Z,50.45
2018-01-10T11:01:06.441Z,80.80
2018-01-10T11:03:41.050Z,72.03
2018-01-10T11:06:16.277Z,32.92
2018-01-10T11:08:51.678Z,27.60
2018-01-10T11:11:26.202Z,28.35
2018-01-10T11:14:00.730Z,30.73
2018-01-10T11:16:35.114Z,34.60
2018-01-10T11:19:09.683Z,31.98
2018-01-10T11:21:44.202Z,28.45
2018-01-10T11:24:19.493Z,24.65
2018-01-10T11:26:53.884Z,30.37
2018-01-10T11:29:28.353Z,30.58
2018-01-10T11:32:02.966Z,28.05
2018-01-10T11:34:38.162Z,28.08
2018-01-10T11:37:12.552Z,30.12
2018-01-10T11:39:47.074Z,29.87
2018-01-10T11:42:22.214Z,26.58
2018-01-10T11:44:56.806Z,26.73
2018-01-10T11:47:32.082Z,28.87
2018-01-10T11:50:06.590Z,26.65
2018-01-10T11:52:41.134Z,26.60
2018-01-10T11:55:15.530Z,27.42
2018-01-10T11:57:50.912Z,34.78
2018-01-10T12:00:25.517Z,26.55
2018-01-10T12:02:59.992Z,33.25
2018-01-10T12:05:34.546Z,28.58
2018-01-10T12:08:09.099Z,30.55
2018-01-10T12:10:43.651Z,26.55
2018-01-10T12:13:18.066Z,29.42
2018-01-10T12:15:52.540Z,32.53
2018-01-10T12:18:27.049Z,31.12
2018-01-10T12:21:01.515Z,52.53
2018-01-10T12:23:36.094Z,42.83
2018-01-10T12:26:10.519Z,35.72
2018-01-10T12:28:45.065Z,29.83
2018-01-10T12:31:19.559Z,29.50
2018-01-10T12:33:54.130Z,44.55
2018-01-10T12:36:28.507Z,27.87
2018-01-10T12:39:03.038Z,26.65
2018-01-10T12:41:37.543Z,44.55
2018-01-10T12:44:12.094Z,40.67
2018-01-10T12:46:46.568Z,23.85
2018-01-10T12:49:22.403Z,22.92
2018-01-10T12:51:56.952Z,25.33
2018-01-10T12:54:31.528Z,27.67
2018-01-10T12:57:06.021Z,25.40
2018-01-10T12:59:40.423Z,28.58
2018-01-10T13:02:14.895Z,26.30
2018-01-10T13:04:49.387Z,29.20
2018-01-10T13:07:23.850Z,26.48
2018-01-10T13:09:58.271Z,28.10
2018-01-10T13:12:32.715Z,26.73
2018-01-10T13:15:07.257Z,28.73
2018-01-10T13:17:42.468Z,32.08
2018-01-10T13:20:17.014Z,27.98
2018-01-10T13:22:51.520Z,25.75
2018-01-10T13:25:27.011Z,34.10
2018-01-10T13:28:01.470Z,27.13
2018-01-10T13:30:35.893Z,28.25
2018-01-10T13:33:10.337Z,30.20
2018-01-10T13:35:44.734Z,26.37
2018-01-10T13:38:19.290Z,30.67
2018-01-10T13:40:53.667Z,27.52
2018-01-10T13:43:28.916Z,28.98
2018-01-10T13:46:03.389Z,35.50
2018-01-10T13:48:38.713Z,36.45
2018-01-10T13:51:13.109Z,26.15
2018-01-10T13:53:48.316Z,35.30
2018-01-10T13:56:22.705Z,33.47
2018-01-10T13:58:57.191Z,28.70
2018-01-10T14:01:31.676Z,36.88
2018-01-10T14:04:06.247Z,31.42
2018-01-10T14:06:40.736Z,29.45
2018-01-10T14:09:15.980Z,30.37
2018-01-10T14:11:51.259Z,30.05
2018-01-10T14:14:25.836Z,32.03
2018-01-10T14:17:00.229Z,34.58
2018-01-10T14:19:34.720Z,33.63
2018-01-10T14:22:10.010Z,32.67
2018-01-10T14:24:44.379Z,36.13
2018-01-10T14:27:18.937Z,32.80
2018-01-10T14:29:53.519Z,29.25
2018-01-10T14:32:27.996Z,31.58
2018-01-10T14:35:02.612Z,34.83
2018-01-10T14:37:37.094Z,30.20
2018-01-10T14:40:11.638Z,35.33
2018-01-10T14:42:46.277Z,56.10
2018-01-10T14:45:20.870Z,85.95
2018-01-10T14:47:56.075Z,68.68
2018-01-10T14:50:30.599Z,53.10
2018-01-10T14:53:05.122Z,47.22
2018-01-10T14:55:39.644Z,46.45
2018-01-10T14:58:14.123Z,50.47
2018-01-10T15:00:48.672Z,40.55
2018-01-10T15:03:23.476Z,31.27
2018-01-10T15:05:57.844Z,35.35
2018-01-10T15:08:32.301Z,32.95
2018-01-10T15:11:07.667Z,36.38
2018-01-10T15:13:43.474Z,41.10
2018-01-10T15:16:17.911Z,34.83
2018-01-10T15:18:52.368Z,32.42
2018-01-10T15:21:26.785Z,43.67
2018-01-10T15:24:01.140Z,37.38
2018-01-10T15:26:36.168Z,32.67
2018-01-10T15:29:10.678Z,42.95
2018-01-10T15:31:45.205Z,36.75
2018-01-10T15:34:19.758Z,47.35
2018-01-10T15:36:54.154Z,33.13
2018-01-10T15:39:28.507Z,34.13
2018-01-10T15:42:02.928Z,39.45
2018-01-10T15:44:37.541Z,38.20
2018-01-10T15:47:11.966Z,40.92
2018-01-10T15:49:46.350Z,34.38
2018-01-10T15:52:20.903Z,36.60
2018-01-10T15:54:55.445Z,35.92
2018-01-10T15:57:30.030Z,39.72
2018-01-10T16:00:04.513Z,43.47
2018-01-10T16:02:39.261Z,38.08
2018-01-10T16:05:13.924Z,41.85
2018-01-10T16:07:48.428Z,34.33
2018-01-10T16:10:22.863Z,42.08
2018-01-10T16:12:57.426Z,38.92
2018-01-10T16:15:31.908Z,37.08
2018-01-10T16:18:06.352Z,35.65
2018-01-10T16:20:40.842Z,40.35
2018-01-10T16:23:15.318Z,36.42
2018-01-10T16:25:49.879Z,40.80
2018-01-10T16:28:24.371Z,34.47
2018-01-10T16:30:58.932Z,43.13
2018-01-10T16:33:34.223Z,40.03
2018-01-10T16:36:10.092Z,38.63
2018-01-10T16:38:44.528Z,34.35
2018-01-10T16:41:19.011Z,39.08
2018-01-10T16:43:54.259Z,38.38
2018-01-10T16:46:29.026Z,47.15
2018-01-10T16:49:03.652Z,52.35
2018-01-10T16:51:38.450Z,39.63
2018-01-10T16:54:13.129Z,42.50
2018-01-10T16:56:47.601Z,41.22
2018-01-10T16:59:22.759Z,51.00
2018-01-10T17:01:57.397Z,35.13
2018-01-10T17:04:32.568Z,44.42
2018-01-10T17:07:07.087Z,40.10
2018-01-10T17:09:41.548Z,44.80
2018-01-10T17:12:15.916Z,37.30
2018-01-10T17:14:51.219Z,36.75
2018-01-10T17:17:25.751Z,40.72
2018-01-10T17:20:00.346Z,36.65
2018-01-10T17:22:34.828Z,42.08
2018-01-10T17:25:09.412Z,40.75
2018-01-10T17:27:43.930Z,36.25
2018-01-10T17:30:18.531Z,37.30
2018-01-10T17:32:53.105Z,46.85
2018-01-10T17:35:27.684Z,46.30
2018-01-10T17:38:02.138Z,41.67
2018-01-10T17:40:36.550Z,47.67
2018-01-10T17:43:11.197Z,41.08
2018-01-10T17:45:45.722Z,43.20
2018-01-10T17:48:20.175Z,42.53
2018-01-10T17:50:55.531Z,50.53
2018-01-10T17:53:30.012Z,41.47
2018-01-10T17:56:04.618Z,40.40
2018-01-10T17:58:39.034Z,44.63
2018-01-10T18:01:14.487Z,60.15
2018-01-10T18:03:48.981Z,44.75
2018-01-10T18:06:23.645Z,39.20
2018-01-10T18:08:58.264Z,45.78
2018-01-10T18:11:32.909Z,41.33
2018-01-10T18:14:07.466Z,40.75
2018-01-10T18:16:42.198Z,40.90
2018-01-10T18:19:16.771Z,41.13
2018-01-10T18:21:51.600Z,49.25
2018-01-10T18:24:27.225Z,48.13
2018-01-10T18:27:02.104Z,49.25
2018-01-10T18:29:36.862Z,49.22
2018-01-10T18:32:11.675Z,41.20
2018-01-10T18:34:46.359Z,55.15
2018-01-10T18:37:20.905Z,38.28
2018-01-10T18:39:55.732Z,52.00
2018-01-10T18:42:30.604Z,45.15
2018-01-10T18:45:06.088Z,44.50
2018-01-10T18:47:40.950Z,46.67
2018-01-10T18:50:15.772Z,52.50
2018-01-10T18:52:50.498Z,47.25
2018-01-10T18:55:25.203Z,41.97
2018-01-10T18:58:00.172Z,48.72
2018-01-10T19:00:34.836Z,46.15
2018-01-10T19:03:09.672Z,41.08
2018-01-10T19:05:44.398Z,39.08
2018-01-10T19:08:19.254Z,43.72
2018-01-10T19:10:53.946Z,44.03
2018-01-10T19:13:28.895Z,41.35
2018-01-10T19:16:03.604Z,55.25
2018-01-10T19:18:38.338Z,40.78
2018-01-10T19:21:12.949Z,46.03
2018-01-10T19:23:47.581Z,41.05
2018-01-10T19:26:22.054Z,39.60
2018-01-10T19:28:56.565Z,41.55
2018-01-10T19:31:31.035Z,41.17
2018-01-10T19:34:05.494Z,42.65
2018-01-10T19:36:40.126Z,39.30
2018-01-10T19:39:14.492Z,41.20
2018-01-10T19:41:48.853Z,33.33
2018-01-10T19:44:23.300Z,40.20
2018-01-10T19:46:57.795Z,40.83
2018-01-10T19:49:32.948Z,34.55
2018-01-10T19:52:08.169Z,41.15
2018-01-10T19:54:42.751Z,43.58
2018-01-10T19:57:17.268Z,47.70
2018-01-10T20:08:43.385Z,41.50
2018-01-10T20:11:18.507Z,42.55
2018-01-10T20:13:52.957Z,41.17
2018-01-10T20:16:27.466Z,40.67
2018-01-10T20:19:02.016Z,48.75
2018-01-10T20:21:36.491Z,42.65
2018-01-10T20:24:10.936Z,39.65
2018-01-10T20:26:45.313Z,42.62
2018-01-10T20:29:19.776Z,40.63
2018-01-10T20:31:54.277Z,40.60
2018-01-10T20:34:28.798Z,37.72
2018-01-10T20:37:03.318Z,36.08
2018-01-10T20:39:37.737Z,41.55
2018-01-10T20:42:12.290Z,43.97
2018-01-10T20:44:46.769Z,48.85
2018-01-10T20:47:21.359Z,42.22
2018-01-10T20:49:55.836Z,39.33
2018-01-10T20:52:30.388Z,39.25
2018-01-10T20:55:04.971Z,39.65
2018-01-10T20:57:40.257Z,43.83
2018-01-10T21:00:14.646Z,41.88
2018-01-10T21:02:49.206Z,51.72
2018-01-10T21:05:23.723Z,71.50
2018-01-10T21:07:58.245Z,90.43
2018-01-10T21:10:32.866Z,119.43
2018-01-10T21:13:07.337Z,131.95
2018-01-10T21:15:41.804Z,51.83
2018-01-10T21:18:16.404Z,43.97
2018-01-10T21:20:50.900Z,37.15
2018-01-10T21:23:25.446Z,37.70
2018-01-10T21:25:59.990Z,40.03
2018-01-10T21:28:34.449Z,38.63
2018-01-10T21:31:08.936Z,38.47
2018-01-10T21:33:43.376Z,40.90
2018-01-10T21:36:17.917Z,38.78
2018-01-10T21:38:52.367Z,39.35
2018-01-10T21:41:27.626Z,43.55
2018-01-10T21:44:02.138Z,44.75
2018-01-10T21:46:37.354Z,45.03
2018-01-10T21:49:11.824Z,39.85
2018-01-10T21:51:46.227Z,35.75
2018-01-10T21:54:20.744Z,42.13
2018-01-10T21:56:55.267Z,39.13
2018-01-10T21:59:29.657Z,40.50
2018-01-10T22:02:04.217Z,35.40
2018-01-10T22:04:38.727Z,38.72
2018-01-10T22:07:13.972Z,37.33
2018-01-10T22:09:48.339Z,39.28
2018-01-10T22:12:22.817Z,41.67
2018-01-10T22:14:57.936Z,39.75
2018-01-10T22:17:32.382Z,41.97
2018-01-10T22:20:07.743Z,42.13
2018-01-10T22:22:42.086Z,38.63
2018-01-10T22:25:16.725Z,40.80
2018-01-10T22:27:51.039Z,43.05
2018-01-10T22:30:25.427Z,46.63
2018-01-10T22:32:59.943Z,45.95
2018-01-10T22:35:44.628Z,39.75
2018-01-10T22:38:19.231Z,42.30
2018-01-10T22:40:53.614Z,36.30
2018-01-10T22:43:28.153Z,47.90
2018-01-10T22:46:02.678Z,38.63
2018-01-10T22:48:37.161Z,39.38
2018-01-10T22:51:11.575Z,39.28
2018-01-10T22:53:46.083Z,38.00
2018-01-10T22:56:20.675Z,47.28
2018-01-10T22:58:55.137Z,37.20
2018-01-10T23:01:29.704Z,41.67
2018-01-10T23:04:04.183Z,37.75
2018-01-10T23:06:38.803Z,44.38
2018-01-10T23:09:13.329Z,41.30
2018-01-10T23:11:47.798Z,38.70
2018-01-10T23:14:22.320Z,40.35
2018-01-10T23:16:56.691Z,37.10
2018-01-10T23:19:31.165Z,34.10
2018-01-10T23:22:05.639Z,43.53
2018-01-10T23:24:40.153Z,41.55
2018-01-10T23:27:14.678Z,39.25
2018-01-10T23:29:49.215Z,37.88
2018-01-10T23:32:23.871Z,39.28
2018-01-10T23:34:58.331Z,32.03
2018-01-10T23:37:32.816Z,37.25
2018-01-10T23:40:07.304Z,37.97
2018-01-10T23:42:42.524Z,41.70
2018-01-10T23:45:16.982Z,36.47
2018-01-10T23:47:51.490Z,40.00
2018-01-10T23:50:25.907Z,37.13
2018-01-10T23:53:00.603Z,37.95
2018-01-10T23:55:35.011Z,38.47
2018-01-10T23:58:09.557Z,37.72
